Strona główna
METAR-TAF:

METAR-TAF

Lotnisko :

Waterbury-Oxford Airport

Oxford, Connecticut, Stany Zjednoczone

Szerokość geograficzna: 41-29N, Długość geograficzna: 073-08W, wysokość: 222 m

Aktualna obserwacja pogody

Raport powstał 13 minut temu, godzina 08:51 UTC
Wiatr 8 kt od północno-północny wschód
Temperatura 17°C
Wilgotność 94%
Ciśnienie 1020 hPa
Widzialność: 16.1 km
Przerywane chmury na wysokości 1400 ft
Zachmurzenie całkowite na wysokości 3400 ft

METAR: KOXC 200851Z AUTO 03008KT 10SM BKN014 OVC034 17/16 A3013 RMK AO2 SLP209 T01720156 55000

czas: 05:04 (09:04 UTC)


TAF: brakujący

Obserwacja i prognoza pogody dla ponad 4000 lotnisk (raport METAR i TAF).

Dostępne stacje oznaczono żółtymi i czerwonymi punktami na mapie.

Najedź kursorem aby zobaczyć nazwę stacji.

Kliknij aby zobaczyć obserwacje i prognozy pogody.

Aby zmienić mapę: kliknij na zielony przycisk z czarnym krzyżykiem, aby powiększyć; na zielony przycisk z myślnikiem, aby pomniejszyć; na zielone strzałki, aby przejść do map sąsiednich.


METAR-TAF: